sensor_id;sensor_type;location;lat;lon;timestamp;P1;durP1;ratioP1;P2;durP2;ratioP2
69678;SDS011;56915;52.046;4.854;2023-03-01T00:01:02;29.05;;;11.07;;
69678;SDS011;56915;52.046;4.854;2023-03-01T00:03:31;30.00;;;10.73;;
69678;SDS011;56915;52.046;4.854;2023-03-01T00:05:58;28.97;;;11.30;;
69678;SDS011;56915;52.046;4.854;2023-03-01T00:08:26;29.63;;;11.57;;
69678;SDS011;56915;52.046;4.854;2023-03-01T00:11:04;30.33;;;11.90;;
69678;SDS011;56915;52.046;4.854;2023-03-01T00:13:45;32.38;;;11.32;;
69678;SDS011;56915;52.046;4.854;2023-03-01T00:16:15;29.08;;;11.27;;
69678;SDS011;56915;52.046;4.854;2023-03-01T00:18:45;28.57;;;11.13;;
69678;SDS011;56915;52.046;4.854;2023-03-01T00:21:12;26.65;;;11.18;;
69678;SDS011;56915;52.046;4.854;2023-03-01T00:23:39;25.90;;;10.90;;
69678;SDS011;56915;52.046;4.854;2023-03-01T00:26:07;24.65;;;10.13;;
69678;SDS011;56915;52.046;4.854;2023-03-01T00:28:36;26.83;;;11.07;;
69678;SDS011;56915;52.046;4.854;2023-03-01T00:31:06;31.33;;;11.23;;
69678;SDS011;56915;52.046;4.854;2023-03-01T00:33:35;28.50;;;11.23;;
69678;SDS011;56915;52.046;4.854;2023-03-01T00:36:02;30.77;;;11.45;;
69678;SDS011;56915;52.046;4.854;2023-03-01T00:38:30;31.85;;;11.25;;
69678;SDS011;56915;52.046;4.854;2023-03-01T00:41:04;29.67;;;11.38;;
69678;SDS011;56915;52.046;4.854;2023-03-01T00:43:35;30.30;;;11.37;;
69678;SDS011;56915;52.046;4.854;2023-03-01T00:46:09;30.77;;;11.57;;
69678;SDS011;56915;52.046;4.854;2023-03-01T00:48:41;27.27;;;10.35;;
69678;SDS011;56915;52.046;4.854;2023-03-01T00:51:10;23.08;;;7.93;;
69678;SDS011;56915;52.046;4.854;2023-03-01T00:53:41;28.33;;;10.38;;
69678;SDS011;56915;52.046;4.854;2023-03-01T00:56:09;36.23;;;12.10;;
69678;SDS011;56915;52.046;4.854;2023-03-01T00:58:37;33.22;;;12.13;;
69678;SDS011;56915;52.046;4.854;2023-03-01T01:01:09;31.35;;;10.63;;
69678;SDS011;56915;52.046;4.854;2023-03-01T01:03:47;29.92;;;11.43;;
69678;SDS011;56915;52.046;4.854;2023-03-01T01:06:18;30.45;;;11.35;;
69678;SDS011;56915;52.046;4.854;2023-03-01T01:08:47;31.30;;;10.90;;
69678;SDS011;56915;52.046;4.854;2023-03-01T01:11:15;35.88;;;12.88;;
69678;SDS011;56915;52.046;4.854;2023-03-01T01:13:43;37.45;;;13.05;;
69678;SDS011;56915;52.046;4.854;2023-03-01T01:16:11;37.95;;;12.95;;
69678;SDS011;56915;52.046;4.854;2023-03-01T01:18:39;37.20;;;13.05;;
69678;SDS011;56915;52.046;4.854;2023-03-01T01:21:07;37.50;;;12.60;;
69678;SDS011;56915;52.046;4.854;2023-03-01T01:23:37;35.10;;;12.27;;
69678;SDS011;56915;52.046;4.854;2023-03-01T01:26:09;40.67;;;13.00;;
69678;SDS011;56915;52.046;4.854;2023-03-01T01:28:38;41.38;;;13.43;;
69678;SDS011;56915;52.046;4.854;2023-03-01T01:31:05;36.95;;;12.90;;
69678;SDS011;56915;52.046;4.854;2023-03-01T01:33:32;34.27;;;11.90;;
69678;SDS011;56915;52.046;4.854;2023-03-01T01:35:59;38.05;;;13.30;;
69678;SDS011;56915;52.046;4.854;2023-03-01T01:38:26;39.17;;;13.38;;
69678;SDS011;56915;52.046;4.854;2023-03-01T01:40:53;36.30;;;13.23;;
69678;SDS011;56915;52.046;4.854;2023-03-01T01:46:30;38.87;;;12.27;;
69678;SDS011;56915;52.046;4.854;2023-03-01T01:49:03;38.88;;;12.98;;
69678;SDS011;56915;52.046;4.854;2023-03-01T01:51:37;36.28;;;12.95;;
69678;SDS011;56915;52.046;4.854;2023-03-01T01:54:26;39.10;;;12.77;;
69678;SDS011;56915;52.046;4.854;2023-03-01T01:57:01;38.00;;;12.38;;
69678;SDS011;56915;52.046;4.854;2023-03-01T01:59:32;32.93;;;12.33;;
69678;SDS011;56915;52.046;4.854;2023-03-01T02:02:00;36.08;;;12.73;;
69678;SDS011;56915;52.046;4.854;2023-03-01T02:04:29;40.53;;;14.00;;
69678;SDS011;56915;52.046;4.854;2023-03-01T02:07:00;37.20;;;13.25;;
69678;SDS011;56915;52.046;4.854;2023-03-01T02:09:31;36.97;;;12.40;;
69678;SDS011;56915;52.046;4.854;2023-03-01T02:11:59;34.80;;;12.70;;
69678;SDS011;56915;52.046;4.854;2023-03-01T02:14:27;37.40;;;12.93;;
69678;SDS011;56915;52.046;4.854;2023-03-01T02:16:54;36.10;;;12.32;;
69678;SDS011;56915;52.046;4.854;2023-03-01T02:19:33;36.45;;;13.25;;
69678;SDS011;56915;52.046;4.854;2023-03-01T02:22:25;34.47;;;13.55;;
69678;SDS011;56915;52.046;4.854;2023-03-01T02:27:49;36.42;;;13.18;;
69678;SDS011;56915;52.046;4.854;2023-03-01T02:30:42;38.47;;;12.73;;
69678;SDS011;56915;52.046;4.854;2023-03-01T02:33:29;32.47;;;12.35;;
69678;SDS011;56915;52.046;4.854;2023-03-01T02:36:00;33.75;;;12.13;;
69678;SDS011;56915;52.046;4.854;2023-03-01T02:38:30;39.00;;;13.20;;
69678;SDS011;56915;52.046;4.854;2023-03-01T02:40:58;42.42;;;14.15;;
69678;SDS011;56915;52.046;4.854;2023-03-01T02:43:29;41.28;;;13.77;;
69678;SDS011;56915;52.046;4.854;2023-03-01T02:46:01;36.92;;;13.25;;
69678;SDS011;56915;52.046;4.854;2023-03-01T02:48:40;41.03;;;14.38;;
69678;SDS011;56915;52.046;4.854;2023-03-01T02:51:26;36.10;;;12.57;;
69678;SDS011;56915;52.046;4.854;2023-03-01T02:56:44;31.27;;;12.80;;
69678;SDS011;56915;52.046;4.854;2023-03-01T02:59:15;39.22;;;13.45;;
69678;SDS011;56915;52.046;4.854;2023-03-01T03:01:45;38.53;;;13.10;;
69678;SDS011;56915;52.046;4.854;2023-03-01T03:04:14;36.77;;;14.00;;
69678;SDS011;56915;52.046;4.854;2023-03-01T03:06:47;37.30;;;13.82;;
69678;SDS011;56915;52.046;4.854;2023-03-01T03:09:17;42.63;;;14.25;;
69678;SDS011;56915;52.046;4.854;2023-03-01T03:11:44;40.17;;;14.73;;
69678;SDS011;56915;52.046;4.854;2023-03-01T03:14:12;36.28;;;14.45;;
69678;SDS011;56915;52.046;4.854;2023-03-01T03:16:41;38.00;;;14.47;;
69678;SDS011;56915;52.046;4.854;2023-03-01T03:19:13;41.65;;;14.00;;
69678;SDS011;56915;52.046;4.854;2023-03-01T03:21:40;37.70;;;13.20;;
69678;SDS011;56915;52.046;4.854;2023-03-01T03:24:06;42.05;;;14.93;;
69678;SDS011;56915;52.046;4.854;2023-03-01T03:26:33;39.85;;;14.77;;
69678;SDS011;56915;52.046;4.854;2023-03-01T03:29:00;43.37;;;15.07;;
69678;SDS011;56915;52.046;4.854;2023-03-01T03:31:27;41.67;;;14.60;;
69678;SDS011;56915;52.046;4.854;2023-03-01T03:33:54;38.08;;;14.05;;
69678;SDS011;56915;52.046;4.854;2023-03-01T03:36:23;39.85;;;14.43;;
69678;SDS011;56915;52.046;4.854;2023-03-01T03:38:50;43.38;;;15.13;;
69678;SDS011;56915;52.046;4.854;2023-03-01T03:41:17;38.53;;;14.53;;
69678;SDS011;56915;52.046;4.854;2023-03-01T03:43:44;43.22;;;14.65;;
69678;SDS011;56915;52.046;4.854;2023-03-01T03:46:11;39.55;;;14.13;;
69678;SDS011;56915;52.046;4.854;2023-03-01T03:48:40;39.97;;;13.98;;
69678;SDS011;56915;52.046;4.854;2023-03-01T03:51:12;41.47;;;14.80;;
69678;SDS011;56915;52.046;4.854;2023-03-01T03:53:41;43.07;;;14.63;;
69678;SDS011;56915;52.046;4.854;2023-03-01T03:56:08;39.40;;;14.05;;
69678;SDS011;56915;52.046;4.854;2023-03-01T03:58:36;41.65;;;14.43;;
69678;SDS011;56915;52.046;4.854;2023-03-01T04:01:02;40.45;;;14.75;;
69678;SDS011;56915;52.046;4.854;2023-03-01T04:03:30;44.17;;;14.65;;
69678;SDS011;56915;52.046;4.854;2023-03-01T04:05:58;41.00;;;13.73;;
69678;SDS011;56915;52.046;4.854;2023-03-01T04:08:26;41.17;;;14.30;;
69678;SDS011;56915;52.046;4.854;2023-03-01T04:10:58;39.83;;;14.55;;
69678;SDS011;56915;52.046;4.854;2023-03-01T04:13:47;34.70;;;12.95;;
69678;SDS011;56915;52.046;4.854;2023-03-01T04:16:14;38.97;;;13.90;;
69678;SDS011;56915;52.046;4.854;2023-03-01T04:18:41;39.33;;;14.57;;
69678;SDS011;56915;52.046;4.854;2023-03-01T04:21:08;39.08;;;14.00;;
69678;SDS011;56915;52.046;4.854;2023-03-01T04:23:34;45.15;;;14.88;;
69678;SDS011;56915;52.046;4.854;2023-03-01T04:26:02;41.50;;;14.63;;
69678;SDS011;56915;52.046;4.854;2023-03-01T04:28:33;41.80;;;14.45;;
69678;SDS011;56915;52.046;4.854;2023-03-01T04:31:03;40.23;;;13.87;;
69678;SDS011;56915;52.046;4.854;2023-03-01T04:36:21;45.50;;;16.02;;
69678;SDS011;56915;52.046;4.854;2023-03-01T04:38:51;41.42;;;15.30;;
69678;SDS011;56915;52.046;4.854;2023-03-01T04:41:19;45.72;;;15.85;;
69678;SDS011;56915;52.046;4.854;2023-03-01T04:43:48;44.87;;;15.37;;
69678;SDS011;56915;52.046;4.854;2023-03-01T04:46:16;46.42;;;15.23;;
69678;SDS011;56915;52.046;4.854;2023-03-01T04:48:45;42.05;;;15.02;;
69678;SDS011;56915;52.046;4.854;2023-03-01T04:51:13;42.47;;;15.20;;
69678;SDS011;56915;52.046;4.854;2023-03-01T04:53:42;42.58;;;13.93;;
69678;SDS011;56915;52.046;4.854;2023-03-01T04:56:10;40.10;;;14.47;;
69678;SDS011;56915;52.046;4.854;2023-03-01T04:58:37;40.45;;;14.93;;
69678;SDS011;56915;52.046;4.854;2023-03-01T05:01:11;40.88;;;15.38;;
69678;SDS011;56915;52.046;4.854;2023-03-01T05:03:46;42.97;;;14.85;;
69678;SDS011;56915;52.046;4.854;2023-03-01T05:06:15;41.45;;;14.82;;
69678;SDS011;56915;52.046;4.854;2023-03-01T05:08:43;41.67;;;15.03;;
69678;SDS011;56915;52.046;4.854;2023-03-01T05:11:10;45.58;;;13.65;;
69678;SDS011;56915;52.046;4.854;2023-03-01T05:13:38;41.05;;;14.48;;
69678;SDS011;56915;52.046;4.854;2023-03-01T05:16:06;40.08;;;13.88;;
69678;SDS011;56915;52.046;4.854;2023-03-01T05:18:37;41.67;;;14.63;;
69678;SDS011;56915;52.046;4.854;2023-03-01T05:21:06;42.93;;;14.97;;
69678;SDS011;56915;52.046;4.854;2023-03-01T05:23:38;45.28;;;15.02;;
69678;SDS011;56915;52.046;4.854;2023-03-01T05:26:06;43.10;;;14.35;;
69678;SDS011;56915;52.046;4.854;2023-03-01T05:28:41;42.35;;;14.85;;
69678;SDS011;56915;52.046;4.854;2023-03-01T05:31:08;42.15;;;14.73;;
69678;SDS011;56915;52.046;4.854;2023-03-01T05:33:36;67.60;;;9.13;;
69678;SDS011;56915;52.046;4.854;2023-03-01T05:36:05;22.17;;;9.02;;
69678;SDS011;56915;52.046;4.854;2023-03-01T05:38:36;30.48;;;11.20;;
69678;SDS011;56915;52.046;4.854;2023-03-01T05:41:03;31.20;;;11.98;;
69678;SDS011;56915;52.046;4.854;2023-03-01T05:43:30;33.25;;;12.32;;
69678;SDS011;56915;52.046;4.854;2023-03-01T05:46:00;35.20;;;12.93;;
69678;SDS011;56915;52.046;4.854;2023-03-01T05:48:27;34.20;;;12.35;;
69678;SDS011;56915;52.046;4.854;2023-03-01T05:50:54;39.10;;;13.75;;
69678;SDS011;56915;52.046;4.854;2023-03-01T05:53:26;36.45;;;12.65;;
69678;SDS011;56915;52.046;4.854;2023-03-01T05:55:52;36.55;;;12.63;;
69678;SDS011;56915;52.046;4.854;2023-03-01T05:58:19;37.63;;;12.60;;
69678;SDS011;56915;52.046;4.854;2023-03-01T06:00:46;40.90;;;13.13;;
69678;SDS011;56915;52.046;4.854;2023-03-01T06:03:15;41.58;;;13.27;;
69678;SDS011;56915;52.046;4.854;2023-03-01T06:05:43;40.55;;;13.07;;
69678;SDS011;56915;52.046;4.854;2023-03-01T06:08:11;39.35;;;13.48;;
69678;SDS011;56915;52.046;4.854;2023-03-01T06:10:38;38.20;;;13.10;;
69678;SDS011;56915;52.046;4.854;2023-03-01T06:13:05;41.70;;;13.60;;
69678;SDS011;56915;52.046;4.854;2023-03-01T06:15:32;42.33;;;13.95;;
69678;SDS011;56915;52.046;4.854;2023-03-01T06:17:59;37.63;;;12.88;;
69678;SDS011;56915;52.046;4.854;2023-03-01T06:20:27;45.08;;;13.80;;
69678;SDS011;56915;52.046;4.854;2023-03-01T06:22:55;38.37;;;12.57;;
69678;SDS011;56915;52.046;4.854;2023-03-01T06:25:22;38.78;;;13.63;;
69678;SDS011;56915;52.046;4.854;2023-03-01T06:27:51;37.10;;;13.23;;
69678;SDS011;56915;52.046;4.854;2023-03-01T06:30:19;39.45;;;13.48;;
69678;SDS011;56915;52.046;4.854;2023-03-01T06:32:47;39.13;;;14.00;;
69678;SDS011;56915;52.046;4.854;2023-03-01T06:35:15;38.50;;;13.40;;
69678;SDS011;56915;52.046;4.854;2023-03-01T06:37:46;37.15;;;13.43;;
69678;SDS011;56915;52.046;4.854;2023-03-01T06:40:14;38.85;;;13.15;;
69678;SDS011;56915;52.046;4.854;2023-03-01T06:42:42;38.53;;;13.93;;
69678;SDS011;56915;52.046;4.854;2023-03-01T06:45:13;36.60;;;13.48;;
69678;SDS011;56915;52.046;4.854;2023-03-01T06:47:42;34.83;;;13.23;;
69678;SDS011;56915;52.046;4.854;2023-03-01T06:50:09;37.67;;;13.13;;
69678;SDS011;56915;52.046;4.854;2023-03-01T06:52:37;36.72;;;13.35;;
69678;SDS011;56915;52.046;4.854;2023-03-01T06:55:04;34.25;;;12.70;;
69678;SDS011;56915;52.046;4.854;2023-03-01T06:57:32;36.00;;;13.00;;
69678;SDS011;56915;52.046;4.854;2023-03-01T06:59:58;35.73;;;13.03;;
69678;SDS011;56915;52.046;4.854;2023-03-01T07:02:25;36.70;;;14.13;;
69678;SDS011;56915;52.046;4.854;2023-03-01T07:04:53;35.67;;;13.68;;
69678;SDS011;56915;52.046;4.854;2023-03-01T07:07:20;38.65;;;14.25;;
69678;SDS011;56915;52.046;4.854;2023-03-01T07:09:48;36.65;;;13.18;;
69678;SDS011;56915;52.046;4.854;2023-03-01T07:12:15;37.00;;;13.77;;
69678;SDS011;56915;52.046;4.854;2023-03-01T07:14:43;37.15;;;13.18;;
69678;SDS011;56915;52.046;4.854;2023-03-01T07:17:10;32.58;;;12.98;;
69678;SDS011;56915;52.046;4.854;2023-03-01T07:19:37;33.50;;;13.27;;
69678;SDS011;56915;52.046;4.854;2023-03-01T07:22:03;36.47;;;13.52;;
69678;SDS011;56915;52.046;4.854;2023-03-01T07:24:33;35.47;;;13.17;;
69678;SDS011;56915;52.046;4.854;2023-03-01T07:27:00;30.67;;;12.70;;
69678;SDS011;56915;52.046;4.854;2023-03-01T07:29:27;38.25;;;14.02;;
69678;SDS011;56915;52.046;4.854;2023-03-01T07:31:54;32.30;;;12.18;;
69678;SDS011;56915;52.046;4.854;2023-03-01T07:34:21;31.85;;;12.65;;
69678;SDS011;56915;52.046;4.854;2023-03-01T07:36:48;29.40;;;11.73;;
69678;SDS011;56915;52.046;4.854;2023-03-01T07:39:15;30.90;;;12.20;;
69678;SDS011;56915;52.046;4.854;2023-03-01T07:41:44;29.85;;;11.25;;
69678;SDS011;56915;52.046;4.854;2023-03-01T07:44:11;28.33;;;11.40;;
69678;SDS011;56915;52.046;4.854;2023-03-01T07:46:38;29.00;;;11.40;;
69678;SDS011;56915;52.046;4.854;2023-03-01T07:49:05;27.63;;;11.40;;
69678;SDS011;56915;52.046;4.854;2023-03-01T07:51:31;25.55;;;11.13;;
69678;SDS011;56915;52.046;4.854;2023-03-01T07:53:58;22.45;;;9.50;;
69678;SDS011;56915;52.046;4.854;2023-03-01T07:56:25;25.17;;;11.30;;
69678;SDS011;56915;52.046;4.854;2023-03-01T07:58:52;28.08;;;11.68;;
69678;SDS011;56915;52.046;4.854;2023-03-01T08:01:19;23.23;;;9.97;;
69678;SDS011;56915;52.046;4.854;2023-03-01T08:03:47;24.27;;;10.20;;
69678;SDS011;56915;52.046;4.854;2023-03-01T08:06:15;20.92;;;9.10;;
69678;SDS011;56915;52.046;4.854;2023-03-01T08:08:42;26.40;;;10.25;;
69678;SDS011;56915;52.046;4.854;2023-03-01T08:11:10;21.52;;;9.45;;
69678;SDS011;56915;52.046;4.854;2023-03-01T08:13:38;24.70;;;9.67;;
69678;SDS011;56915;52.046;4.854;2023-03-01T08:16:06;21.20;;;9.88;;
69678;SDS011;56915;52.046;4.854;2023-03-01T08:18:35;23.42;;;9.30;;
69678;SDS011;56915;52.046;4.854;2023-03-01T08:21:09;21.08;;;9.57;;
69678;SDS011;56915;52.046;4.854;2023-03-01T08:23:38;27.73;;;10.18;;
69678;SDS011;56915;52.046;4.854;2023-03-01T08:26:10;23.50;;;9.90;;
69678;SDS011;56915;52.046;4.854;2023-03-01T08:28:42;24.40;;;10.43;;
69678;SDS011;56915;52.046;4.854;2023-03-01T08:31:13;21.65;;;9.40;;
69678;SDS011;56915;52.046;4.854;2023-03-01T08:33:47;21.95;;;9.55;;
69678;SDS011;56915;52.046;4.854;2023-03-01T08:36:22;18.65;;;7.75;;
69678;SDS011;56915;52.046;4.854;2023-03-01T08:38:50;22.10;;;9.70;;
69678;SDS011;56915;52.046;4.854;2023-03-01T08:41:17;21.42;;;9.30;;
69678;SDS011;56915;52.046;4.854;2023-03-01T08:43:44;22.10;;;9.38;;
69678;SDS011;56915;52.046;4.854;2023-03-01T08:46:11;20.05;;;9.05;;
69678;SDS011;56915;52.046;4.854;2023-03-01T08:48:39;22.70;;;9.65;;
69678;SDS011;56915;52.046;4.854;2023-03-01T08:51:09;21.53;;;9.17;;
69678;SDS011;56915;52.046;4.854;2023-03-01T08:53:39;23.70;;;9.77;;
69678;SDS011;56915;52.046;4.854;2023-03-01T08:56:06;21.60;;;9.55;;
69678;SDS011;56915;52.046;4.854;2023-03-01T08:58:35;20.10;;;9.18;;
69678;SDS011;56915;52.046;4.854;2023-03-01T09:01:07;22.67;;;9.73;;
69678;SDS011;56915;52.046;4.854;2023-03-01T09:03:35;20.73;;;9.10;;
69678;SDS011;56915;52.046;4.854;2023-03-01T09:06:02;19.50;;;9.38;;
69678;SDS011;56915;52.046;4.854;2023-03-01T09:08:30;18.65;;;8.73;;
69678;SDS011;56915;52.046;4.854;2023-03-01T09:11:07;19.45;;;8.50;;
69678;SDS011;56915;52.046;4.854;2023-03-01T09:13:35;19.25;;;8.40;;
69678;SDS011;56915;52.046;4.854;2023-03-01T09:16:03;16.70;;;7.00;;
69678;SDS011;56915;52.046;4.854;2023-03-01T09:18:31;15.10;;;7.22;;
69678;SDS011;56915;52.046;4.854;2023-03-01T09:21:33;15.40;;;6.63;;
69678;SDS011;56915;52.046;4.854;2023-03-01T09:24:06;14.43;;;6.15;;
69678;SDS011;56915;52.046;4.854;2023-03-01T09:26:39;13.38;;;6.05;;
69678;SDS011;56915;52.046;4.854;2023-03-01T09:29:06;12.47;;;6.23;;
69678;SDS011;56915;52.046;4.854;2023-03-01T09:31:35;12.30;;;5.85;;
69678;SDS011;56915;52.046;4.854;2023-03-01T09:34:02;10.93;;;6.00;;
69678;SDS011;56915;52.046;4.854;2023-03-01T09:36:29;10.88;;;5.57;;
69678;SDS011;56915;52.046;4.854;2023-03-01T09:38:57;13.75;;;5.75;;
69678;SDS011;56915;52.046;4.854;2023-03-01T09:44:23;11.10;;;5.40;;
69678;SDS011;56915;52.046;4.854;2023-03-01T09:46:59;12.00;;;4.72;;
69678;SDS011;56915;52.046;4.854;2023-03-01T09:51:55;9.73;;;4.85;;
69678;SDS011;56915;52.046;4.854;2023-03-01T09:54:41;11.00;;;5.30;;
69678;SDS011;56915;52.046;4.854;2023-03-01T09:57:24;10.48;;;4.55;;
69678;SDS011;56915;52.046;4.854;2023-03-01T09:59:59;9.82;;;4.85;;
69678;SDS011;56915;52.046;4.854;2023-03-01T10:02:50;9.88;;;4.68;;
69678;SDS011;56915;52.046;4.854;2023-03-01T10:10:39;11.57;;;5.00;;
69678;SDS011;56915;52.046;4.854;2023-03-01T10:15:49;10.43;;;5.07;;
69678;SDS011;56915;52.046;4.854;2023-03-01T10:18:28;10.45;;;5.10;;
69678;SDS011;56915;52.046;4.854;2023-03-01T10:20:59;9.87;;;4.23;;
69678;SDS011;56915;52.046;4.854;2023-03-01T10:23:29;11.02;;;5.22;;
69678;SDS011;56915;52.046;4.854;2023-03-01T10:27:00;12.18;;;4.88;;
69678;SDS011;56915;52.046;4.854;2023-03-01T10:29:04;10.18;;;4.53;;
69678;SDS011;56915;52.046;4.854;2023-03-01T10:31:46;11.38;;;5.13;;
69678;SDS011;56915;52.046;4.854;2023-03-01T10:34:17;7.47;;;3.53;;
69678;SDS011;56915;52.046;4.854;2023-03-01T10:36:55;8.60;;;3.70;;
69678;SDS011;56915;52.046;4.854;2023-03-01T10:39:24;8.02;;;3.53;;
69678;SDS011;56915;52.046;4.854;2023-03-01T10:42:02;8.43;;;4.30;;
69678;SDS011;56915;52.046;4.854;2023-03-01T10:47:40;6.00;;;3.00;;
69678;SDS011;56915;52.046;4.854;2023-03-01T10:50:01;7.28;;;3.45;;
69678;SDS011;56915;52.046;4.854;2023-03-01T10:52:36;7.72;;;3.88;;
69678;SDS011;56915;52.046;4.854;2023-03-01T10:57:39;9.68;;;3.45;;
69678;SDS011;56915;52.046;4.854;2023-03-01T11:00:15;7.30;;;3.70;;
69678;SDS011;56915;52.046;4.854;2023-03-01T11:02:49;7.20;;;3.42;;
69678;SDS011;56915;52.046;4.854;2023-03-01T11:05:26;6.57;;;3.40;;
69678;SDS011;56915;52.046;4.854;2023-03-01T11:07:57;9.00;;;4.50;;
69678;SDS011;56915;52.046;4.854;2023-03-01T11:10:31;6.50;;;2.97;;
69678;SDS011;56915;52.046;4.854;2023-03-01T11:13:07;8.07;;;3.07;;
69678;SDS011;56915;52.046;4.854;2023-03-01T11:15:39;5.35;;;2.60;;
69678;SDS011;56915;52.046;4.854;2023-03-01T11:18:15;6.30;;;2.90;;
69678;SDS011;56915;52.046;4.854;2023-03-01T11:20:46;7.05;;;3.53;;
69678;SDS011;56915;52.046;4.854;2023-03-01T11:23:17;6.30;;;3.10;;
69678;SDS011;56915;52.046;4.854;2023-03-01T11:25:53;6.27;;;3.50;;
69678;SDS011;56915;52.046;4.854;2023-03-01T11:28:22;8.02;;;3.40;;
69678;SDS011;56915;52.046;4.854;2023-03-01T11:33:38;5.63;;;3.20;;
69678;SDS011;56915;52.046;4.854;2023-03-01T11:36:16;7.30;;;3.83;;
69678;SDS011;56915;52.046;4.854;2023-03-01T11:38:45;7.23;;;3.63;;
69678;SDS011;56915;52.046;4.854;2023-03-01T11:41:20;6.07;;;3.42;;
69678;SDS011;56915;52.046;4.854;2023-03-01T11:43:52;7.43;;;3.17;;
69678;SDS011;56915;52.046;4.854;2023-03-01T11:57:38;8.52;;;4.30;;
69678;SDS011;56915;52.046;4.854;2023-03-01T12:06:21;7.40;;;3.00;;
69678;SDS011;56915;52.046;4.854;2023-03-01T12:37:31;5.93;;;3.00;;
69678;SDS011;56915;52.046;4.854;2023-03-01T12:43:37;7.60;;;3.38;;
69678;SDS011;56915;52.046;4.854;2023-03-01T12:46:10;7.60;;;3.58;;
69678;SDS011;56915;52.046;4.854;2023-03-01T12:51:31;6.65;;;3.83;;
69678;SDS011;56915;52.046;4.854;2023-03-01T12:54:02;6.22;;;3.47;;
69678;SDS011;56915;52.046;4.854;2023-03-01T12:56:37;8.57;;;3.55;;
69678;SDS011;56915;52.046;4.854;2023-03-01T13:07:34;4.55;;;2.60;;
69678;SDS011;56915;52.046;4.854;2023-03-01T13:17:58;6.43;;;3.03;;
69678;SDS011;56915;52.046;4.854;2023-03-01T13:20:34;5.15;;;2.95;;
69678;SDS011;56915;52.046;4.854;2023-03-01T13:33:51;6.95;;;3.47;;
69678;SDS011;56915;52.046;4.854;2023-03-01T13:38:59;6.57;;;3.35;;
69678;SDS011;56915;52.046;4.854;2023-03-01T13:49:41;5.45;;;3.00;;
69678;SDS011;56915;52.046;4.854;2023-03-01T13:55:29;9.47;;;3.60;;
69678;SDS011;56915;52.046;4.854;2023-03-01T13:58:01;5.47;;;2.65;;
69678;SDS011;56915;52.046;4.854;2023-03-01T14:00:41;5.68;;;3.10;;
69678;SDS011;56915;52.046;4.854;2023-03-01T14:03:10;5.50;;;3.38;;
69678;SDS011;56915;52.046;4.854;2023-03-01T14:05:40;6.78;;;3.20;;
69678;SDS011;56915;52.046;4.854;2023-03-01T14:08:19;6.50;;;2.60;;
69678;SDS011;56915;52.046;4.854;2023-03-01T14:10:51;6.28;;;3.50;;
69678;SDS011;56915;52.046;4.854;2023-03-01T14:19:01;5.88;;;2.60;;
69678;SDS011;56915;52.046;4.854;2023-03-01T14:24:50;5.72;;;3.03;;
69678;SDS011;56915;52.046;4.854;2023-03-01T14:27:21;4.38;;;2.67;;
69678;SDS011;56915;52.046;4.854;2023-03-01T14:29:56;5.43;;;2.58;;
69678;SDS011;56915;52.046;4.854;2023-03-01T14:32:28;5.10;;;2.70;;
69678;SDS011;56915;52.046;4.854;2023-03-01T14:34:58;5.37;;;2.80;;
69678;SDS011;56915;52.046;4.854;2023-03-01T14:37:29;7.28;;;2.85;;
69678;SDS011;56915;52.046;4.854;2023-03-01T14:39:58;5.15;;;3.00;;
69678;SDS011;56915;52.046;4.854;2023-03-01T14:42:30;6.47;;;2.75;;
69678;SDS011;56915;52.046;4.854;2023-03-01T14:45:01;4.93;;;2.70;;
69678;SDS011;56915;52.046;4.854;2023-03-01T14:47:31;6.17;;;3.00;;
69678;SDS011;56915;52.046;4.854;2023-03-01T14:50:09;7.07;;;2.90;;
69678;SDS011;56915;52.046;4.854;2023-03-01T14:52:56;5.03;;;2.58;;
69678;SDS011;56915;52.046;4.854;2023-03-01T14:55:27;12.07;;;4.03;;
69678;SDS011;56915;52.046;4.854;2023-03-01T14:58:02;6.65;;;3.08;;
69678;SDS011;56915;52.046;4.854;2023-03-01T15:00:31;4.80;;;2.83;;
69678;SDS011;56915;52.046;4.854;2023-03-01T15:03:01;6.70;;;3.15;;
69678;SDS011;56915;52.046;4.854;2023-03-01T15:05:40;7.55;;;3.10;;
69678;SDS011;56915;52.046;4.854;2023-03-01T15:08:15;6.65;;;3.17;;
69678;SDS011;56915;52.046;4.854;2023-03-01T15:13:51;5.10;;;2.93;;
69678;SDS011;56915;52.046;4.854;2023-03-01T15:21:29;9.35;;;3.40;;
69678;SDS011;56915;52.046;4.854;2023-03-01T15:26:58;8.03;;;4.00;;
69678;SDS011;56915;52.046;4.854;2023-03-01T15:29:32;8.43;;;3.90;;
69678;SDS011;56915;52.046;4.854;2023-03-01T15:32:22;5.82;;;3.60;;
69678;SDS011;56915;52.046;4.854;2023-03-01T15:34:57;6.72;;;3.63;;
69678;SDS011;56915;52.046;4.854;2023-03-01T15:37:44;6.60;;;3.40;;
69678;SDS011;56915;52.046;4.854;2023-03-01T15:40:22;7.03;;;3.30;;
69678;SDS011;56915;52.046;4.854;2023-03-01T15:43:05;22.33;;;9.38;;
69678;SDS011;56915;52.046;4.854;2023-03-01T15:45:33;13.40;;;6.82;;
69678;SDS011;56915;52.046;4.854;2023-03-01T15:48:01;7.45;;;4.05;;
69678;SDS011;56915;52.046;4.854;2023-03-01T15:50:53;9.70;;;3.60;;
69678;SDS011;56915;52.046;4.854;2023-03-01T15:53:22;6.33;;;3.30;;
69678;SDS011;56915;52.046;4.854;2023-03-01T15:55:50;7.90;;;3.58;;
69678;SDS011;56915;52.046;4.854;2023-03-01T15:58:18;5.72;;;2.90;;
69678;SDS011;56915;52.046;4.854;2023-03-01T16:00:47;8.23;;;3.67;;
69678;SDS011;56915;52.046;4.854;2023-03-01T16:03:26;7.03;;;3.05;;
69678;SDS011;56915;52.046;4.854;2023-03-01T16:05:53;8.50;;;3.23;;
69678;SDS011;56915;52.046;4.854;2023-03-01T16:08:20;7.57;;;3.00;;
69678;SDS011;56915;52.046;4.854;2023-03-01T16:10:47;4.68;;;2.20;;
69678;SDS011;56915;52.046;4.854;2023-03-01T16:13:16;5.28;;;2.65;;
69678;SDS011;56915;52.046;4.854;2023-03-01T16:15:43;5.35;;;3.08;;
69678;SDS011;56915;52.046;4.854;2023-03-01T16:18:10;5.97;;;3.50;;
69678;SDS011;56915;52.046;4.854;2023-03-01T16:20:38;6.43;;;3.70;;
69678;SDS011;56915;52.046;4.854;2023-03-01T16:23:07;5.85;;;3.30;;
69678;SDS011;56915;52.046;4.854;2023-03-01T16:25:36;13.02;;;5.72;;
69678;SDS011;56915;52.046;4.854;2023-03-01T16:28:04;8.10;;;3.70;;
69678;SDS011;56915;52.046;4.854;2023-03-01T16:30:34;8.77;;;3.70;;
69678;SDS011;56915;52.046;4.854;2023-03-01T16:33:02;7.72;;;4.20;;
69678;SDS011;56915;52.046;4.854;2023-03-01T16:35:50;6.25;;;3.47;;
69678;SDS011;56915;52.046;4.854;2023-03-01T16:38:17;6.75;;;3.60;;
69678;SDS011;56915;52.046;4.854;2023-03-01T16:40:48;7.30;;;3.85;;
69678;SDS011;56915;52.046;4.854;2023-03-01T16:43:15;9.33;;;4.07;;
69678;SDS011;56915;52.046;4.854;2023-03-01T16:45:42;5.68;;;3.13;;
69678;SDS011;56915;52.046;4.854;2023-03-01T16:48:11;8.13;;;4.38;;
69678;SDS011;56915;52.046;4.854;2023-03-01T16:50:38;8.05;;;4.10;;
69678;SDS011;56915;52.046;4.854;2023-03-01T16:53:05;7.07;;;3.53;;
69678;SDS011;56915;52.046;4.854;2023-03-01T16:55:32;6.17;;;3.07;;
69678;SDS011;56915;52.046;4.854;2023-03-01T16:57:59;7.78;;;3.72;;
69678;SDS011;56915;52.046;4.854;2023-03-01T17:00:26;8.88;;;4.03;;
69678;SDS011;56915;52.046;4.854;2023-03-01T17:02:53;7.68;;;4.22;;
69678;SDS011;56915;52.046;4.854;2023-03-01T17:05:20;9.90;;;4.50;;
69678;SDS011;56915;52.046;4.854;2023-03-01T17:07:49;10.47;;;4.33;;
69678;SDS011;56915;52.046;4.854;2023-03-01T17:10:17;6.70;;;3.42;;
69678;SDS011;56915;52.046;4.854;2023-03-01T17:12:43;12.30;;;4.72;;
69678;SDS011;56915;52.046;4.854;2023-03-01T17:15:13;9.68;;;4.25;;
69678;SDS011;56915;52.046;4.854;2023-03-01T17:17:40;11.25;;;4.93;;